createdAt,value
2019-01-30T00:01:40.544Z,48.56
2019-01-30T00:04:06.581Z,48.52
2019-01-30T00:06:32.580Z,48.57
2019-01-30T00:08:58.574Z,48.46
2019-01-30T00:11:24.610Z,48.49
2019-01-30T00:13:50.614Z,48.55
2019-01-30T00:16:16.648Z,48.48
2019-01-30T00:18:42.638Z,48.46
2019-01-30T00:21:08.638Z,48.53
2019-01-30T00:23:34.670Z,48.49
2019-01-30T00:26:00.669Z,48.47
2019-01-30T00:28:26.664Z,48.39
2019-01-30T00:30:52.695Z,48.46
2019-01-30T00:33:18.692Z,48.39
2019-01-30T00:35:44.705Z,48.41
2019-01-30T00:38:10.735Z,48.39
2019-01-30T00:40:36.731Z,48.37
2019-01-30T00:43:02.774Z,48.38
2019-01-30T00:45:28.767Z,48.34
2019-01-30T00:47:54.758Z,48.34
2019-01-30T00:50:20.786Z,48.43
2019-01-30T00:52:46.819Z,48.35
2019-01-30T00:55:12.839Z,48.38
2019-01-30T00:57:38.828Z,48.34
2019-01-30T01:00:14.179Z,48.33
2019-01-30T01:02:30.900Z,48.30
2019-01-30T01:04:56.897Z,48.37
2019-01-30T01:07:22.899Z,48.28
2019-01-30T01:09:48.935Z,48.29
2019-01-30T01:12:15.018Z,48.30
2019-01-30T01:14:40.966Z,48.27
2019-01-30T01:17:06.964Z,48.24
2019-01-30T01:19:32.955Z,48.25
2019-01-30T01:21:58.992Z,48.31
2019-01-30T01:24:24.996Z,48.27
2019-01-30T01:26:51.024Z,48.31
2019-01-30T01:29:17.019Z,48.23
2019-01-30T01:31:43.018Z,48.24
2019-01-30T01:34:09.047Z,48.22
2019-01-30T01:36:35.047Z,48.21
2019-01-30T01:39:01.044Z,48.13
2019-01-30T01:41:27.083Z,48.07
2019-01-30T01:43:53.079Z,48.04
2019-01-30T01:46:19.074Z,47.98
2019-01-30T01:48:45.114Z,47.95
2019-01-30T01:51:11.112Z,47.96
2019-01-30T01:53:37.107Z,47.88
2019-01-30T01:56:03.140Z,47.84
2019-01-30T01:58:29.135Z,47.77
2019-01-30T02:00:55.165Z,47.80
2019-01-30T02:03:21.160Z,47.67
2019-01-30T02:05:47.153Z,47.70
2019-01-30T02:08:13.189Z,47.77
2019-01-30T02:10:39.182Z,47.87
2019-01-30T02:13:05.224Z,47.92
2019-01-30T02:15:31.429Z,47.95
2019-01-30T02:17:57.347Z,48.03
2019-01-30T02:20:23.384Z,48.02
2019-01-30T02:22:49.374Z,48.06
2019-01-30T02:25:15.407Z,48.08
2019-01-30T02:27:41.451Z,48.08
2019-01-30T02:30:07.451Z,48.13
2019-01-30T02:32:33.447Z,48.13
2019-01-30T02:34:59.483Z,48.09
2019-01-30T02:37:25.476Z,48.11
2019-01-30T02:39:51.467Z,48.12
2019-01-30T02:42:17.499Z,48.09
2019-01-30T02:44:43.495Z,48.08
2019-01-30T02:47:09.522Z,48.05
2019-01-30T02:49:35.514Z,48.06
2019-01-30T02:52:01.548Z,48.03
2019-01-30T02:54:27.545Z,48.05
2019-01-30T02:56:53.535Z,48.00
2019-01-30T02:59:19.570Z,48.01
2019-01-30T03:01:45.596Z,47.97
2019-01-30T03:04:11.568Z,47.97
2019-01-30T03:06:37.598Z,47.96
2019-01-30T03:09:03.620Z,47.99
2019-01-30T03:11:29.613Z,48.00
2019-01-30T03:13:55.652Z,47.93
2019-01-30T03:16:21.648Z,47.92
2019-01-30T03:18:47.638Z,47.89
2019-01-30T03:21:13.667Z,47.92
2019-01-30T03:23:39.707Z,47.87
2019-01-30T03:26:05.736Z,47.89
2019-01-30T03:28:31.788Z,47.85
2019-01-30T03:30:57.820Z,47.85
2019-01-30T03:33:23.905Z,47.82
2019-01-30T03:35:49.826Z,47.79
2019-01-30T03:38:15.868Z,47.81
2019-01-30T03:40:41.865Z,47.80
2019-01-30T03:43:07.893Z,47.78
2019-01-30T03:45:33.928Z,47.74
2019-01-30T03:47:59.932Z,47.71
2019-01-30T03:50:25.922Z,47.75
2019-01-30T03:52:51.954Z,47.72
2019-01-30T03:55:18.047Z,47.71
2019-01-30T03:57:43.963Z,47.76
2019-01-30T04:00:10.010Z,47.76
2019-01-30T04:02:36.047Z,47.68
2019-01-30T04:05:02.117Z,47.70
2019-01-30T04:07:28.036Z,47.68
2019-01-30T04:09:54.077Z,47.67
2019-01-30T04:12:20.072Z,47.67
2019-01-30T04:14:46.066Z,47.65
2019-01-30T04:17:12.098Z,47.67
2019-01-30T04:19:38.098Z,47.63
2019-01-30T04:22:04.095Z,47.67
2019-01-30T04:24:30.142Z,47.62
2019-01-30T04:26:56.174Z,47.61
2019-01-30T04:29:22.203Z,47.60
2019-01-30T04:31:48.200Z,47.59
2019-01-30T04:34:14.231Z,47.60
2019-01-30T04:36:40.228Z,47.57
2019-01-30T04:39:06.223Z,47.59
2019-01-30T04:41:32.263Z,47.57
2019-01-30T04:43:58.259Z,47.53
2019-01-30T04:46:24.257Z,47.55
2019-01-30T04:48:50.308Z,47.55
2019-01-30T04:51:16.304Z,47.55
2019-01-30T04:53:42.295Z,47.51
2019-01-30T04:56:08.333Z,47.52
2019-01-30T04:58:34.324Z,47.48
2019-01-30T05:01:00.321Z,47.51
2019-01-30T05:03:26.360Z,47.49
2019-01-30T05:05:52.365Z,47.48
2019-01-30T05:08:18.453Z,47.48
2019-01-30T05:10:44.388Z,47.47
2019-01-30T05:13:10.422Z,47.45
2019-01-30T05:15:36.452Z,47.48
2019-01-30T05:18:02.446Z,47.46
2019-01-30T05:20:28.477Z,47.43
2019-01-30T05:22:54.487Z,47.46
2019-01-30T05:25:20.522Z,47.43
2019-01-30T05:27:46.514Z,47.50
2019-01-30T05:30:12.563Z,47.40
2019-01-30T05:32:38.559Z,47.46
2019-01-30T05:35:04.596Z,47.46
2019-01-30T05:37:30.637Z,47.41
2019-01-30T05:39:56.634Z,47.38
2019-01-30T05:42:22.628Z,47.44
2019-01-30T05:44:48.674Z,47.42
2019-01-30T05:47:14.678Z,47.37
2019-01-30T05:49:40.721Z,47.37
2019-01-30T05:52:06.758Z,47.38
2019-01-30T05:54:32.751Z,47.40
2019-01-30T05:56:58.748Z,47.35
2019-01-30T05:59:24.789Z,47.37
2019-01-30T06:01:50.788Z,47.34
2019-01-30T06:04:16.786Z,47.35
2019-01-30T06:06:42.819Z,47.38
2019-01-30T06:09:08.814Z,47.40
2019-01-30T06:11:34.809Z,47.42
2019-01-30T06:14:00.842Z,47.47
2019-01-30T06:16:26.839Z,47.45
2019-01-30T06:18:52.834Z,47.48
2019-01-30T06:21:18.927Z,47.45
2019-01-30T06:23:44.920Z,47.44
2019-01-30T06:26:10.916Z,47.41
2019-01-30T06:28:36.963Z,47.43
2019-01-30T06:31:02.955Z,47.44
2019-01-30T06:33:28.957Z,47.41
2019-01-30T06:35:54.992Z,47.43
2019-01-30T06:38:20.989Z,47.39
2019-01-30T06:40:46.988Z,47.43
2019-01-30T06:43:13.032Z,47.40
2019-01-30T06:45:39.027Z,47.38
2019-01-30T06:48:05.018Z,47.38
2019-01-30T06:50:31.061Z,47.42
2019-01-30T06:52:57.055Z,47.37
2019-01-30T06:55:23.080Z,47.38
2019-01-30T06:57:49.114Z,47.40
2019-01-30T07:00:15.231Z,47.41
2019-01-30T07:02:41.227Z,47.37
2019-01-30T07:05:07.278Z,47.36
2019-01-30T07:07:33.293Z,47.35
2019-01-30T07:09:59.318Z,47.37
2019-01-30T07:12:25.359Z,47.35
2019-01-30T07:14:51.365Z,47.36
2019-01-30T07:17:17.360Z,47.37
2019-01-30T07:19:43.398Z,47.35
2019-01-30T07:22:09.393Z,47.35
2019-01-30T07:24:35.394Z,47.45
2019-01-30T07:27:01.438Z,47.57
2019-01-30T07:29:27.436Z,47.74
2019-01-30T07:31:53.433Z,47.76
2019-01-30T07:34:19.462Z,47.85
2019-01-30T07:36:45.457Z,47.92
2019-01-30T07:39:11.491Z,47.98
2019-01-30T07:41:37.485Z,48.15
2019-01-30T07:44:03.478Z,48.14
2019-01-30T07:46:29.518Z,48.19
2019-01-30T07:48:55.516Z,48.27
2019-01-30T07:51:21.611Z,48.38
2019-01-30T07:53:47.556Z,48.30
2019-01-30T07:56:13.850Z,48.43
2019-01-30T07:58:39.850Z,48.47
2019-01-30T08:01:05.852Z,48.39
2019-01-30T08:03:31.886Z,48.51
2019-01-30T08:05:57.884Z,48.57
2019-01-30T08:08:23.882Z,48.56
2019-01-30T08:10:49.926Z,48.56
2019-01-30T08:13:15.928Z,48.57
2019-01-30T08:15:41.938Z,48.51
2019-01-30T08:18:07.983Z,48.54
2019-01-30T08:20:34.001Z,48.58
2019-01-30T08:23:00.107Z,48.60
2019-01-30T08:25:26.292Z,48.61
2019-01-30T08:27:52.215Z,48.65
2019-01-30T08:30:22.546Z,48.66
2019-01-30T08:32:44.832Z,48.70
2019-01-30T08:35:10.770Z,48.74
2019-01-30T08:37:39.256Z,48.77
2019-01-30T08:40:05.278Z,48.69
2019-01-30T08:42:31.275Z,48.70
2019-01-30T08:44:57.301Z,48.82
2019-01-30T08:47:23.352Z,48.83
2019-01-30T08:49:49.353Z,48.83
2019-01-30T08:52:15.349Z,48.89
2019-01-30T08:54:41.384Z,48.80
2019-01-30T08:57:07.380Z,48.98
2019-01-30T08:59:33.375Z,49.06
2019-01-30T09:01:59.412Z,49.02
2019-01-30T09:04:25.494Z,49.10
2019-01-30T09:06:51.415Z,49.05
2019-01-30T09:09:17.478Z,49.15
2019-01-30T09:11:43.472Z,49.05
2019-01-30T09:14:09.471Z,48.98
2019-01-30T09:16:35.507Z,49.03
2019-01-30T09:19:01.506Z,49.03
2019-01-30T09:21:27.506Z,48.95
2019-01-30T09:23:53.550Z,48.96
2019-01-30T09:26:19.542Z,49.08
2019-01-30T09:28:45.542Z,49.02
2019-01-30T09:31:11.585Z,49.01
2019-01-30T09:33:37.589Z,48.92
2019-01-30T09:36:03.584Z,49.01
2019-01-30T09:38:29.653Z,49.11
2019-01-30T09:40:55.750Z,49.41
2019-01-30T09:43:21.645Z,49.34
2019-01-30T09:45:47.719Z,49.26
2019-01-30T09:48:13.737Z,48.91
2019-01-30T09:50:39.688Z,48.81
2019-01-30T09:53:05.737Z,48.77
2019-01-30T09:55:31.763Z,49.05
2019-01-30T09:57:57.725Z,49.29
2019-01-30T10:00:23.769Z,49.11
2019-01-30T10:02:49.764Z,49.25
2019-01-30T10:05:15.762Z,49.28
2019-01-30T10:07:41.804Z,49.25
2019-01-30T10:10:07.796Z,49.08
2019-01-30T10:12:33.789Z,49.16
2019-01-30T10:14:59.850Z,49.02
2019-01-30T10:17:25.843Z,49.01
2019-01-30T10:19:51.859Z,48.96
2019-01-30T10:22:18.116Z,48.97
2019-01-30T10:24:44.155Z,48.95
2019-01-30T10:27:10.148Z,48.93
2019-01-30T10:29:36.145Z,48.89
2019-01-30T10:32:02.185Z,48.83
2019-01-30T10:34:28.178Z,48.87
2019-01-30T10:36:54.173Z,48.66
2019-01-30T10:39:22.134Z,48.65
2019-01-30T10:41:49.068Z,48.76
2019-01-30T10:44:15.294Z,48.71
2019-01-30T10:46:43.261Z,49.06
2019-01-30T10:49:09.431Z,48.94
2019-01-30T10:51:35.487Z,48.98
2019-01-30T10:54:01.555Z,49.05
2019-01-30T10:56:27.551Z,49.05
2019-01-30T10:58:53.550Z,49.08
2019-01-30T11:01:19.583Z,49.42
2019-01-30T11:03:45.587Z,49.16
2019-01-30T11:06:11.584Z,49.19
2019-01-30T11:08:37.622Z,49.23
2019-01-30T11:11:07.892Z,49.06
2019-01-30T11:13:29.635Z,49.11
2019-01-30T11:15:55.681Z,49.33
2019-01-30T11:18:21.678Z,49.09
2019-01-30T11:20:47.699Z,49.19
2019-01-30T11:23:13.742Z,49.21
2019-01-30T11:25:39.745Z,49.20
2019-01-30T11:28:05.739Z,49.17
2019-01-30T11:30:31.771Z,49.56
2019-01-30T11:32:57.768Z,49.25
2019-01-30T11:35:23.759Z,49.10
2019-01-30T11:37:49.808Z,49.30
2019-01-30T11:40:15.806Z,49.31
2019-01-30T11:42:41.799Z,49.24
2019-01-30T11:45:07.852Z,49.22
2019-01-30T11:47:33.880Z,49.20
2019-01-30T11:49:59.885Z,49.18
2019-01-30T11:52:25.933Z,49.29
2019-01-30T11:54:51.925Z,49.23
2019-01-30T11:57:17.920Z,49.33
2019-01-30T11:59:43.972Z,49.39
2019-01-30T12:02:09.972Z,49.37
2019-01-30T12:04:35.972Z,49.35
2019-01-30T12:07:02.012Z,49.49
2019-01-30T12:09:28.006Z,49.45
2019-01-30T12:11:54.002Z,49.60
2019-01-30T12:14:20.040Z,49.55
2019-01-30T12:16:46.034Z,49.59
2019-01-30T12:19:12.031Z,49.67
2019-01-30T12:21:38.071Z,49.64
2019-01-30T12:24:04.110Z,49.61
2019-01-30T12:26:30.148Z,49.77
2019-01-30T12:28:56.160Z,49.87
2019-01-30T12:31:22.193Z,49.65
2019-01-30T12:33:48.188Z,49.77
2019-01-30T12:36:14.239Z,49.81
2019-01-30T12:38:40.240Z,49.96
2019-01-30T12:41:06.242Z,49.89
2019-01-30T12:43:32.270Z,49.99
2019-01-30T12:45:58.266Z,49.88
2019-01-30T12:48:24.410Z,49.90
2019-01-30T12:50:50.439Z,50.23
2019-01-30T12:53:16.434Z,50.00
2019-01-30T12:55:42.478Z,49.99
2019-01-30T12:58:08.484Z,49.78
2019-01-30T13:00:34.531Z,49.93
2019-01-30T13:03:00.523Z,49.83
2019-01-30T13:05:26.522Z,49.83
2019-01-30T13:07:52.679Z,50.01
2019-01-30T13:10:18.676Z,50.01
2019-01-30T13:12:44.670Z,50.31
2019-01-30T13:15:10.720Z,49.94
2019-01-30T13:17:36.719Z,49.86
2019-01-30T13:20:02.710Z,50.28
2019-01-30T13:22:28.753Z,49.96
2019-01-30T13:24:54.748Z,49.78
2019-01-30T13:27:20.743Z,50.13
2019-01-30T13:29:46.837Z,50.32
2019-01-30T13:32:12.835Z,50.00
2019-01-30T13:34:48.622Z,50.03
2019-01-30T13:37:04.872Z,49.86
2019-01-30T13:39:30.877Z,50.12
2019-01-30T13:41:56.917Z,49.82
2019-01-30T13:44:22.956Z,50.06
2019-01-30T13:46:48.952Z,49.93
2019-01-30T13:49:14.979Z,49.91
2019-01-30T13:51:41.012Z,49.81
2019-01-30T13:54:06.992Z,49.79
2019-01-30T13:56:33.087Z,49.76
2019-01-30T13:58:59.026Z,49.73
2019-01-30T14:01:25.023Z,49.86
2019-01-30T14:03:51.016Z,49.91
2019-01-30T14:06:17.056Z,49.83
2019-01-30T14:08:43.050Z,49.95
2019-01-30T14:11:09.075Z,50.11
2019-01-30T14:13:35.102Z,49.91
2019-01-30T14:16:01.097Z,50.16
2019-01-30T14:18:27.360Z,50.07
2019-01-30T14:20:53.473Z,50.39
2019-01-30T14:23:21.261Z,49.97
2019-01-30T14:25:47.343Z,49.97
2019-01-30T14:28:13.531Z,49.98
2019-01-30T14:30:39.985Z,50.52
2019-01-30T14:33:06.758Z,49.88
2019-01-30T14:35:32.772Z,50.15
2019-01-30T14:37:58.932Z,50.12
2019-01-30T14:40:25.199Z,50.07
2019-01-30T14:42:51.166Z,49.99
2019-01-30T14:45:17.907Z,50.08
2019-01-30T14:47:48.012Z,50.32
2019-01-30T14:50:14.086Z,50.22
2019-01-30T14:52:40.388Z,50.10
2019-01-30T14:55:06.551Z,50.12
2019-01-30T14:57:32.832Z,50.23
2019-01-30T14:59:59.094Z,50.54
2019-01-30T15:02:25.485Z,50.22
2019-01-30T15:04:51.682Z,50.60
2019-01-30T15:07:28.398Z,50.34
2019-01-30T15:09:44.809Z,50.80
2019-01-30T15:12:11.413Z,50.42
2019-01-30T15:14:37.794Z,50.23
2019-01-30T15:17:03.905Z,51.19
2019-01-30T15:19:30.033Z,50.46
2019-01-30T15:21:57.011Z,50.55
2019-01-30T15:24:22.770Z,50.46
2019-01-30T15:26:49.195Z,50.97
2019-01-30T15:29:15.746Z,51.45
2019-01-30T15:31:42.392Z,50.70
2019-01-30T15:34:08.669Z,50.71
2019-01-30T15:36:34.947Z,50.81
2019-01-30T15:39:00.991Z,50.84
2019-01-30T15:41:27.371Z,51.09
2019-01-30T15:43:53.784Z,50.98
2019-01-30T15:46:20.216Z,50.85
2019-01-30T15:48:46.258Z,51.59
2019-01-30T15:51:12.258Z,50.64
2019-01-30T15:53:38.303Z,50.90
2019-01-30T15:56:04.311Z,51.30
2019-01-30T15:58:40.442Z,50.90
2019-01-30T16:03:47.103Z,51.17
2019-01-30T16:06:13.448Z,51.13
2019-01-30T16:08:39.502Z,51.31
2019-01-30T16:11:05.496Z,51.34
2019-01-30T16:13:31.506Z,51.40
2019-01-30T16:15:57.682Z,51.90
2019-01-30T16:18:24.088Z,51.61
2019-01-30T16:20:50.092Z,51.80
2019-01-30T16:23:16.530Z,51.95
2019-01-30T16:25:42.812Z,51.79
2019-01-30T16:28:09.144Z,52.62
2019-01-30T16:30:35.192Z,52.42
2019-01-30T16:33:01.209Z,52.16
2019-01-30T16:35:28.442Z,51.83
2019-01-30T16:37:54.601Z,51.98
2019-01-30T16:40:20.590Z,51.51
2019-01-30T16:42:47.028Z,51.56
2019-01-30T16:45:13.241Z,51.38
2019-01-30T16:47:39.375Z,51.50
2019-01-30T16:50:05.560Z,51.55
2019-01-30T16:52:31.540Z,51.50
2019-01-30T16:54:57.847Z,52.71
2019-01-30T16:57:24.081Z,51.86
2019-01-30T16:59:50.439Z,52.26
2019-01-30T17:02:16.812Z,52.79
2019-01-30T17:04:43.045Z,52.08
2019-01-30T17:07:09.052Z,51.76
2019-01-30T17:09:35.209Z,51.73
2019-01-30T17:12:01.269Z,51.60
2019-01-30T17:14:27.296Z,51.52
2019-01-30T17:16:53.297Z,51.40
2019-01-30T17:19:19.336Z,51.77
2019-01-30T17:21:45.580Z,51.38
2019-01-30T17:24:11.660Z,51.36
2019-01-30T17:26:37.831Z,51.25
2019-01-30T17:29:03.988Z,51.51
2019-01-30T17:31:30.107Z,51.48
2019-01-30T17:33:58.999Z,51.55
2019-01-30T17:36:26.513Z,51.42
2019-01-30T17:38:52.803Z,51.34
2019-01-30T17:41:18.803Z,51.55
2019-01-30T17:43:45.487Z,51.81
2019-01-30T17:46:11.826Z,51.67
2019-01-30T17:48:39.628Z,52.00
2019-01-30T17:51:04.527Z,51.48
2019-01-30T17:53:30.675Z,51.74
2019-01-30T17:55:56.907Z,51.45
2019-01-30T17:58:23.508Z,51.77
2019-01-30T18:00:49.501Z,52.10
2019-01-30T18:03:16.274Z,52.83
2019-01-30T18:05:42.186Z,52.20
2019-01-30T18:08:08.239Z,53.00
2019-01-30T18:10:34.796Z,52.55
2019-01-30T18:13:01.133Z,52.79
2019-01-30T18:15:27.220Z,51.71
2019-01-30T18:17:54.442Z,51.80
2019-01-30T18:20:19.451Z,51.75
2019-01-30T18:22:45.817Z,51.45
2019-01-30T18:25:12.014Z,51.66
2019-01-30T18:27:38.163Z,52.52
2019-01-30T18:30:04.160Z,51.53
2019-01-30T18:32:30.404Z,51.74
2019-01-30T18:34:56.388Z,51.78
2019-01-30T18:37:22.921Z,51.97
2019-01-30T18:39:49.761Z,51.89
2019-01-30T18:42:15.261Z,51.79
2019-01-30T18:44:42.258Z,51.85
2019-01-30T18:47:08.464Z,51.90
2019-01-30T18:49:34.468Z,51.89
2019-01-30T18:52:00.494Z,51.83
2019-01-30T18:54:26.733Z,51.97
2019-01-30T18:56:52.758Z,51.77
2019-01-30T18:59:18.885Z,51.60
2019-01-30T19:01:48.550Z,51.84
2019-01-30T19:04:14.788Z,52.04
2019-01-30T19:06:52.078Z,51.78
2019-01-30T19:09:09.393Z,51.89
2019-01-30T19:11:36.821Z,51.79
2019-01-30T19:14:02.888Z,51.62
2019-01-30T19:16:29.121Z,51.51
2019-01-30T19:18:55.161Z,51.64
2019-01-30T19:21:21.383Z,51.43
2019-01-30T19:23:47.390Z,52.14
2019-01-30T19:26:13.423Z,51.39
2019-01-30T19:28:39.494Z,51.34
2019-01-30T19:31:05.907Z,51.34
2019-01-30T19:33:32.083Z,51.22
2019-01-30T19:35:58.236Z,51.27
2019-01-30T19:38:24.683Z,51.27
2019-01-30T19:40:50.981Z,51.26
2019-01-30T19:43:17.088Z,51.01
2019-01-30T19:45:46.176Z,50.90
2019-01-30T19:48:12.299Z,50.93
2019-01-30T19:50:38.328Z,50.85
2019-01-30T19:53:05.461Z,50.69
2019-01-30T19:55:30.371Z,50.64
2019-01-30T19:57:56.371Z,50.53
2019-01-30T20:00:22.419Z,50.57
2019-01-30T20:02:48.473Z,50.42
2019-01-30T20:05:14.474Z,50.41
2019-01-30T20:07:40.785Z,50.40
2019-01-30T20:10:06.862Z,50.31
2019-01-30T20:12:32.873Z,50.31
2019-01-30T20:14:59.239Z,50.29
2019-01-30T20:17:25.241Z,50.48
2019-01-30T20:19:51.352Z,50.24
2019-01-30T20:22:20.606Z,50.55
2019-01-30T20:24:46.811Z,50.45
2019-01-30T20:27:12.917Z,50.59
2019-01-30T20:29:39.066Z,50.33
2019-01-30T20:32:05.211Z,50.63
2019-01-30T20:34:31.201Z,50.54
2019-01-30T20:36:57.357Z,50.45
2019-01-30T20:39:23.370Z,50.53
2019-01-30T20:41:49.664Z,50.38
2019-01-30T20:44:15.679Z,50.67
2019-01-30T20:46:41.823Z,50.51
2019-01-30T20:49:08.001Z,50.48
2019-01-30T20:51:34.089Z,50.33
2019-01-30T20:54:00.750Z,50.40
2019-01-30T20:56:26.943Z,50.35
2019-01-30T20:58:52.970Z,50.42
2019-01-30T21:01:19.047Z,50.48
2019-01-30T21:03:45.163Z,50.33
2019-01-30T21:06:11.234Z,50.33
2019-01-30T21:08:37.549Z,50.21
2019-01-30T21:11:04.250Z,50.11
2019-01-30T21:13:30.669Z,50.12
2019-01-30T21:15:56.744Z,50.11
2019-01-30T21:18:22.768Z,50.07
2019-01-30T21:20:48.813Z,49.99
2019-01-30T21:23:14.985Z,49.98
2019-01-30T21:25:41.118Z,50.00
2019-01-30T21:28:07.478Z,49.97
2019-01-30T21:30:50.006Z,49.98
2019-01-30T21:33:16.040Z,49.78
2019-01-30T21:35:42.078Z,49.89
2019-01-30T21:38:08.079Z,50.08
2019-01-30T21:40:34.115Z,50.03
2019-01-30T21:43:00.112Z,50.18
2019-01-30T21:45:26.112Z,50.16
2019-01-30T21:47:52.153Z,50.01
2019-01-30T21:50:18.146Z,50.47
2019-01-30T21:52:44.185Z,50.38
2019-01-30T21:55:10.176Z,50.35
2019-01-30T21:57:36.211Z,50.13
2019-01-30T22:00:02.263Z,50.14
2019-01-30T22:02:28.261Z,50.25
2019-01-30T22:04:54.295Z,50.34
2019-01-30T22:07:20.332Z,50.60
2019-01-30T22:09:46.368Z,50.33
2019-01-30T22:12:12.363Z,50.31
2019-01-30T22:14:38.409Z,50.35
2019-01-30T22:17:04.402Z,50.22
2019-01-30T22:19:30.394Z,50.20
2019-01-30T22:21:56.432Z,50.22
2019-01-30T22:24:22.433Z,50.21
2019-01-30T22:26:48.445Z,50.53
2019-01-30T22:29:14.484Z,50.55
2019-01-30T22:31:40.479Z,50.74
2019-01-30T22:34:06.523Z,50.70
2019-01-30T22:36:32.523Z,50.34
2019-01-30T22:38:58.540Z,50.77
2019-01-30T22:41:24.581Z,50.50
2019-01-30T22:43:50.578Z,50.69
2019-01-30T22:46:16.610Z,50.77
2019-01-30T22:48:42.603Z,50.74
2019-01-30T22:51:08.639Z,50.64
2019-01-30T22:53:34.679Z,50.53
2019-01-30T22:56:00.679Z,50.36
2019-01-30T22:58:26.714Z,50.54
2019-01-30T23:00:52.748Z,50.48
2019-01-30T23:03:18.747Z,50.81
2019-01-30T23:05:44.738Z,50.26
2019-01-30T23:08:10.775Z,50.24
2019-01-30T23:10:36.784Z,50.48
2019-01-30T23:13:02.780Z,50.24
2019-01-30T23:15:28.803Z,50.31
2019-01-30T23:17:54.794Z,50.38
2019-01-30T23:20:22.689Z,50.32
2019-01-30T23:22:46.838Z,50.32
2019-01-30T23:25:12.868Z,50.26
2019-01-30T23:27:38.863Z,50.67
2019-01-30T23:30:04.975Z,50.67
2019-01-30T23:32:30.890Z,50.22
2019-01-30T23:34:57.360Z,50.22
2019-01-30T23:37:23.277Z,50.17
2019-01-30T23:39:49.267Z,50.12
2019-01-30T23:42:15.290Z,50.13
2019-01-30T23:44:41.288Z,50.05
2019-01-30T23:47:07.315Z,50.09
2019-01-30T23:49:33.348Z,50.06
2019-01-30T23:51:59.341Z,49.94
2019-01-30T23:54:25.340Z,50.01
2019-01-30T23:56:51.390Z,49.86
2019-01-30T23:59:17.409Z,49.93
